sensor_id;sensor_type;location;lat;lon;timestamp;P1;durP1;ratioP1;P2;durP2;ratioP2
41233;SDS011;26968;42.686;23.352;2023-07-09T00:01:51;7.50;;;3.10;;
41233;SDS011;26968;42.686;23.352;2023-07-09T00:04:17;7.72;;;3.40;;
41233;SDS011;26968;42.686;23.352;2023-07-09T00:06:44;11.48;;;3.20;;
41233;SDS011;26968;42.686;23.352;2023-07-09T00:09:20;11.35;;;3.03;;
41233;SDS011;26968;42.686;23.352;2023-07-09T00:11:46;12.60;;;3.17;;
41233;SDS011;26968;42.686;23.352;2023-07-09T00:14:13;15.02;;;3.55;;
41233;SDS011;26968;42.686;23.352;2023-07-09T00:16:40;8.13;;;3.17;;
41233;SDS011;26968;42.686;23.352;2023-07-09T00:19:13;6.70;;;3.22;;
41233;SDS011;26968;42.686;23.352;2023-07-09T00:21:44;7.13;;;3.30;;
41233;SDS011;26968;42.686;23.352;2023-07-09T00:24:11;5.90;;;2.92;;
41233;SDS011;26968;42.686;23.352;2023-07-09T00:26:37;11.95;;;3.10;;
41233;SDS011;26968;42.686;23.352;2023-07-09T00:29:07;13.27;;;3.75;;
41233;SDS011;26968;42.686;23.352;2023-07-09T00:31:34;10.15;;;3.50;;
41233;SDS011;26968;42.686;23.352;2023-07-09T00:33:59;7.75;;;3.00;;
41233;SDS011;26968;42.686;23.352;2023-07-09T00:36:28;7.40;;;3.28;;
41233;SDS011;26968;42.686;23.352;2023-07-09T00:38:56;11.10;;;3.25;;
41233;SDS011;26968;42.686;23.352;2023-07-09T00:41:24;21.02;;;3.45;;
41233;SDS011;26968;42.686;23.352;2023-07-09T00:43:50;9.15;;;3.13;;
41233;SDS011;26968;42.686;23.352;2023-07-09T00:47:10;6.95;;;2.85;;
41233;SDS011;26968;42.686;23.352;2023-07-09T00:49:11;9.77;;;3.30;;
41233;SDS011;26968;42.686;23.352;2023-07-09T00:51:42;5.78;;;2.72;;
41233;SDS011;26968;42.686;23.352;2023-07-09T00:54:28;6.53;;;3.22;;
41233;SDS011;26968;42.686;23.352;2023-07-09T00:57:21;8.65;;;3.05;;
41233;SDS011;26968;42.686;23.352;2023-07-09T00:59:52;12.02;;;3.80;;
41233;SDS011;26968;42.686;23.352;2023-07-09T01:02:24;10.80;;;3.72;;
41233;SDS011;26968;42.686;23.352;2023-07-09T01:04:53;6.30;;;3.22;;
41233;SDS011;26968;42.686;23.352;2023-07-09T01:07:22;11.70;;;3.67;;
41233;SDS011;26968;42.686;23.352;2023-07-09T01:09:48;9.02;;;3.10;;
41233;SDS011;26968;42.686;23.352;2023-07-09T01:12:13;7.43;;;3.17;;
41233;SDS011;26968;42.686;23.352;2023-07-09T01:14:43;9.57;;;3.35;;
41233;SDS011;26968;42.686;23.352;2023-07-09T01:17:13;9.73;;;3.28;;
41233;SDS011;26968;42.686;23.352;2023-07-09T01:19:41;7.43;;;2.97;;
41233;SDS011;26968;42.686;23.352;2023-07-09T01:22:08;8.05;;;3.08;;
41233;SDS011;26968;42.686;23.352;2023-07-09T01:27:43;10.02;;;3.35;;
41233;SDS011;26968;42.686;23.352;2023-07-09T01:30:25;7.85;;;3.08;;
41233;SDS011;26968;42.686;23.352;2023-07-09T01:32:58;8.50;;;3.22;;
41233;SDS011;26968;42.686;23.352;2023-07-09T01:35:26;5.55;;;3.38;;
41233;SDS011;26968;42.686;23.352;2023-07-09T01:37:53;6.72;;;2.75;;
41233;SDS011;26968;42.686;23.352;2023-07-09T01:40:19;12.05;;;3.63;;
41233;SDS011;26968;42.686;23.352;2023-07-09T01:42:48;5.60;;;3.13;;
41233;SDS011;26968;42.686;23.352;2023-07-09T01:45:13;7.38;;;3.75;;
41233;SDS011;26968;42.686;23.352;2023-07-09T01:47:40;9.65;;;3.38;;
41233;SDS011;26968;42.686;23.352;2023-07-09T01:50:09;6.18;;;2.97;;
41233;SDS011;26968;42.686;23.352;2023-07-09T01:52:36;6.32;;;3.13;;
41233;SDS011;26968;42.686;23.352;2023-07-09T01:55:03;10.32;;;3.28;;
41233;SDS011;26968;42.686;23.352;2023-07-09T01:57:30;7.57;;;3.22;;
41233;SDS011;26968;42.686;23.352;2023-07-09T01:59:59;7.63;;;3.88;;
41233;SDS011;26968;42.686;23.352;2023-07-09T02:02:30;5.40;;;3.50;;
41233;SDS011;26968;42.686;23.352;2023-07-09T02:04:57;9.90;;;3.50;;
41233;SDS011;26968;42.686;23.352;2023-07-09T02:07:24;15.80;;;4.00;;
41233;SDS011;26968;42.686;23.352;2023-07-09T02:09:50;12.93;;;3.58;;
41233;SDS011;26968;42.686;23.352;2023-07-09T02:12:16;12.85;;;4.50;;
41233;SDS011;26968;42.686;23.352;2023-07-09T02:14:42;13.27;;;3.85;;
41233;SDS011;26968;42.686;23.352;2023-07-09T02:17:10;7.20;;;3.78;;
41233;SDS011;26968;42.686;23.352;2023-07-09T02:19:36;9.25;;;3.88;;
41233;SDS011;26968;42.686;23.352;2023-07-09T02:22:03;9.07;;;3.85;;
41233;SDS011;26968;42.686;23.352;2023-07-09T02:24:29;6.47;;;3.55;;
41233;SDS011;26968;42.686;23.352;2023-07-09T02:26:55;9.55;;;4.38;;
41233;SDS011;26968;42.686;23.352;2023-07-09T02:29:25;8.13;;;3.97;;
41233;SDS011;26968;42.686;23.352;2023-07-09T02:31:52;9.43;;;3.75;;
41233;SDS011;26968;42.686;23.352;2023-07-09T02:34:19;12.32;;;4.03;;
41233;SDS011;26968;42.686;23.352;2023-07-09T02:36:44;9.13;;;4.00;;
41233;SDS011;26968;42.686;23.352;2023-07-09T02:39:10;12.73;;;4.03;;
41233;SDS011;26968;42.686;23.352;2023-07-09T02:41:37;10.40;;;3.97;;
41233;SDS011;26968;42.686;23.352;2023-07-09T02:44:06;8.93;;;3.40;;
41233;SDS011;26968;42.686;23.352;2023-07-09T02:46:32;6.53;;;3.85;;
41233;SDS011;26968;42.686;23.352;2023-07-09T02:48:58;12.85;;;4.22;;
41233;SDS011;26968;42.686;23.352;2023-07-09T02:51:23;13.38;;;4.65;;
41233;SDS011;26968;42.686;23.352;2023-07-09T02:53:53;7.90;;;5.05;;
41233;SDS011;26968;42.686;23.352;2023-07-09T02:56:19;11.85;;;4.03;;
41233;SDS011;26968;42.686;23.352;2023-07-09T02:58:44;13.73;;;4.63;;
41233;SDS011;26968;42.686;23.352;2023-07-09T03:01:10;9.02;;;4.75;;
41233;SDS011;26968;42.686;23.352;2023-07-09T03:03:35;13.20;;;5.03;;
41233;SDS011;26968;42.686;23.352;2023-07-09T03:06:00;12.35;;;4.97;;
41233;SDS011;26968;42.686;23.352;2023-07-09T03:08:26;12.77;;;4.80;;
41233;SDS011;26968;42.686;23.352;2023-07-09T03:10:51;7.18;;;4.45;;
41233;SDS011;26968;42.686;23.352;2023-07-09T03:13:17;10.23;;;4.30;;
41233;SDS011;26968;42.686;23.352;2023-07-09T03:15:42;10.82;;;4.93;;
41233;SDS011;26968;42.686;23.352;2023-07-09T03:18:07;10.93;;;4.40;;
41233;SDS011;26968;42.686;23.352;2023-07-09T03:20:33;8.25;;;4.47;;
41233;SDS011;26968;42.686;23.352;2023-07-09T03:22:58;11.18;;;4.60;;
41233;SDS011;26968;42.686;23.352;2023-07-09T03:25:24;11.55;;;5.03;;
41233;SDS011;26968;42.686;23.352;2023-07-09T03:27:49;8.27;;;4.40;;
41233;SDS011;26968;42.686;23.352;2023-07-09T03:30:15;12.95;;;4.97;;
41233;SDS011;26968;42.686;23.352;2023-07-09T03:32:41;16.65;;;4.22;;
41233;SDS011;26968;42.686;23.352;2023-07-09T03:35:08;11.68;;;4.68;;
41233;SDS011;26968;42.686;23.352;2023-07-09T03:37:33;12.18;;;5.15;;
41233;SDS011;26968;42.686;23.352;2023-07-09T03:39:59;12.65;;;5.07;;
41233;SDS011;26968;42.686;23.352;2023-07-09T03:42:25;15.40;;;4.72;;
41233;SDS011;26968;42.686;23.352;2023-07-09T03:44:50;9.25;;;4.57;;
41233;SDS011;26968;42.686;23.352;2023-07-09T03:47:16;15.38;;;5.03;;
41233;SDS011;26968;42.686;23.352;2023-07-09T03:49:43;10.32;;;5.00;;
41233;SDS011;26968;42.686;23.352;2023-07-09T03:52:08;19.45;;;5.05;;
41233;SDS011;26968;42.686;23.352;2023-07-09T03:54:34;15.52;;;4.80;;
41233;SDS011;26968;42.686;23.352;2023-07-09T03:56:59;11.65;;;4.50;;
41233;SDS011;26968;42.686;23.352;2023-07-09T03:59:25;7.78;;;4.57;;
41233;SDS011;26968;42.686;23.352;2023-07-09T04:01:50;10.18;;;4.47;;
41233;SDS011;26968;42.686;23.352;2023-07-09T04:04:16;11.35;;;4.70;;
41233;SDS011;26968;42.686;23.352;2023-07-09T04:06:45;10.98;;;4.80;;
41233;SDS011;26968;42.686;23.352;2023-07-09T04:09:11;10.25;;;4.35;;
41233;SDS011;26968;42.686;23.352;2023-07-09T04:11:37;13.23;;;4.80;;
41233;SDS011;26968;42.686;23.352;2023-07-09T04:14:02;9.10;;;4.97;;
41233;SDS011;26968;42.686;23.352;2023-07-09T04:16:28;11.55;;;4.07;;
41233;SDS011;26968;42.686;23.352;2023-07-09T04:18:53;11.10;;;4.70;;
41233;SDS011;26968;42.686;23.352;2023-07-09T04:21:19;10.55;;;4.88;;
41233;SDS011;26968;42.686;23.352;2023-07-09T04:23:44;10.90;;;4.20;;
41233;SDS011;26968;42.686;23.352;2023-07-09T04:26:13;14.68;;;4.95;;
41233;SDS011;26968;42.686;23.352;2023-07-09T04:28:39;12.60;;;4.25;;
41233;SDS011;26968;42.686;23.352;2023-07-09T04:31:04;14.68;;;4.78;;
41233;SDS011;26968;42.686;23.352;2023-07-09T04:33:30;12.23;;;5.03;;
41233;SDS011;26968;42.686;23.352;2023-07-09T04:35:55;9.10;;;4.38;;
41233;SDS011;26968;42.686;23.352;2023-07-09T04:38:22;11.70;;;4.90;;
41233;SDS011;26968;42.686;23.352;2023-07-09T04:40:47;13.00;;;5.10;;
41233;SDS011;26968;42.686;23.352;2023-07-09T04:43:13;11.23;;;5.03;;
41233;SDS011;26968;42.686;23.352;2023-07-09T04:45:38;13.85;;;5.22;;
41233;SDS011;26968;42.686;23.352;2023-07-09T04:48:04;17.08;;;5.32;;
41233;SDS011;26968;42.686;23.352;2023-07-09T04:50:30;14.18;;;5.07;;
41233;SDS011;26968;42.686;23.352;2023-07-09T04:52:55;17.25;;;5.70;;
41233;SDS011;26968;42.686;23.352;2023-07-09T04:55:21;13.13;;;5.25;;
41233;SDS011;26968;42.686;23.352;2023-07-09T04:57:46;15.38;;;5.30;;
41233;SDS011;26968;42.686;23.352;2023-07-09T05:00:12;14.10;;;5.07;;
41233;SDS011;26968;42.686;23.352;2023-07-09T05:02:38;9.45;;;5.53;;
41233;SDS011;26968;42.686;23.352;2023-07-09T05:05:03;14.63;;;5.57;;
41233;SDS011;26968;42.686;23.352;2023-07-09T05:07:30;9.77;;;4.25;;
41233;SDS011;26968;42.686;23.352;2023-07-09T05:09:58;13.05;;;5.18;;
41233;SDS011;26968;42.686;23.352;2023-07-09T05:12:25;19.70;;;5.10;;
41233;SDS011;26968;42.686;23.352;2023-07-09T05:14:52;11.13;;;5.18;;
41233;SDS011;26968;42.686;23.352;2023-07-09T05:17:17;15.80;;;5.65;;
41233;SDS011;26968;42.686;23.352;2023-07-09T05:19:43;18.38;;;6.05;;
41233;SDS011;26968;42.686;23.352;2023-07-09T05:22:08;10.10;;;5.63;;
41233;SDS011;26968;42.686;23.352;2023-07-09T05:24:33;13.45;;;5.30;;
41233;SDS011;26968;42.686;23.352;2023-07-09T05:26:59;20.77;;;6.45;;
41233;SDS011;26968;42.686;23.352;2023-07-09T05:29:25;16.30;;;5.60;;
41233;SDS011;26968;42.686;23.352;2023-07-09T05:31:50;21.40;;;6.15;;
41233;SDS011;26968;42.686;23.352;2023-07-09T05:34:16;11.93;;;5.88;;
41233;SDS011;26968;42.686;23.352;2023-07-09T05:36:41;12.10;;;5.75;;
41233;SDS011;26968;42.686;23.352;2023-07-09T05:39:07;10.88;;;4.88;;
41233;SDS011;26968;42.686;23.352;2023-07-09T05:41:32;13.77;;;4.40;;
41233;SDS011;26968;42.686;23.352;2023-07-09T05:43:58;14.93;;;4.82;;
41233;SDS011;26968;42.686;23.352;2023-07-09T05:46:23;11.35;;;4.35;;
41233;SDS011;26968;42.686;23.352;2023-07-09T05:48:49;9.18;;;4.05;;
41233;SDS011;26968;42.686;23.352;2023-07-09T05:51:14;11.23;;;4.95;;
41233;SDS011;26968;42.686;23.352;2023-07-09T05:53:40;11.10;;;4.60;;
41233;SDS011;26968;42.686;23.352;2023-07-09T05:56:05;8.02;;;4.15;;
41233;SDS011;26968;42.686;23.352;2023-07-09T05:58:31;10.30;;;4.60;;
41233;SDS011;26968;42.686;23.352;2023-07-09T06:00:57;9.18;;;4.10;;
41233;SDS011;26968;42.686;23.352;2023-07-09T06:03:23;12.88;;;4.22;;
41233;SDS011;26968;42.686;23.352;2023-07-09T06:05:50;10.52;;;4.70;;
41233;SDS011;26968;42.686;23.352;2023-07-09T06:08:17;7.93;;;4.18;;
41233;SDS011;26968;42.686;23.352;2023-07-09T06:10:53;13.63;;;4.30;;
41233;SDS011;26968;42.686;23.352;2023-07-09T06:13:20;11.27;;;4.78;;
41233;SDS011;26968;42.686;23.352;2023-07-09T06:15:47;11.15;;;4.50;;
41233;SDS011;26968;42.686;23.352;2023-07-09T06:18:13;11.23;;;4.32;;
41233;SDS011;26968;42.686;23.352;2023-07-09T06:20:38;6.82;;;3.83;;
41233;SDS011;26968;42.686;23.352;2023-07-09T06:23:04;7.07;;;3.95;;
41233;SDS011;26968;42.686;23.352;2023-07-09T06:25:29;8.05;;;4.72;;
41233;SDS011;26968;42.686;23.352;2023-07-09T06:27:55;12.35;;;4.20;;
41233;SDS011;26968;42.686;23.352;2023-07-09T06:30:20;16.73;;;4.28;;
41233;SDS011;26968;42.686;23.352;2023-07-09T06:32:45;10.82;;;4.18;;
41233;SDS011;26968;42.686;23.352;2023-07-09T06:35:11;11.40;;;4.18;;
41233;SDS011;26968;42.686;23.352;2023-07-09T06:37:36;10.43;;;3.85;;
41233;SDS011;26968;42.686;23.352;2023-07-09T06:40:02;5.97;;;4.05;;
41233;SDS011;26968;42.686;23.352;2023-07-09T06:42:28;6.82;;;3.92;;
41233;SDS011;26968;42.686;23.352;2023-07-09T06:44:53;8.60;;;4.15;;
41233;SDS011;26968;42.686;23.352;2023-07-09T06:47:19;12.27;;;4.13;;
41233;SDS011;26968;42.686;23.352;2023-07-09T06:49:44;10.88;;;4.30;;
41233;SDS011;26968;42.686;23.352;2023-07-09T06:52:09;20.00;;;4.75;;
41233;SDS011;26968;42.686;23.352;2023-07-09T06:54:35;9.73;;;4.18;;
41233;SDS011;26968;42.686;23.352;2023-07-09T06:57:00;10.18;;;4.20;;
41233;SDS011;26968;42.686;23.352;2023-07-09T06:59:26;10.57;;;4.35;;
41233;SDS011;26968;42.686;23.352;2023-07-09T07:01:51;10.70;;;4.57;;
41233;SDS011;26968;42.686;23.352;2023-07-09T07:04:17;7.68;;;3.95;;
41233;SDS011;26968;42.686;23.352;2023-07-09T07:06:42;8.50;;;4.15;;
41233;SDS011;26968;42.686;23.352;2023-07-09T07:09:07;8.57;;;3.85;;
41233;SDS011;26968;42.686;23.352;2023-07-09T07:11:34;11.27;;;4.65;;
41233;SDS011;26968;42.686;23.352;2023-07-09T07:13:59;10.75;;;4.22;;
41233;SDS011;26968;42.686;23.352;2023-07-09T07:16:25;9.65;;;4.05;;
41233;SDS011;26968;42.686;23.352;2023-07-09T07:18:50;17.67;;;5.05;;
41233;SDS011;26968;42.686;23.352;2023-07-09T07:21:15;7.18;;;4.15;;
41233;SDS011;26968;42.686;23.352;2023-07-09T07:23:41;9.52;;;3.50;;
41233;SDS011;26968;42.686;23.352;2023-07-09T07:26:06;7.57;;;4.28;;
41233;SDS011;26968;42.686;23.352;2023-07-09T07:28:33;12.30;;;4.32;;
41233;SDS011;26968;42.686;23.352;2023-07-09T07:31:03;6.57;;;3.75;;
41233;SDS011;26968;42.686;23.352;2023-07-09T07:33:32;7.07;;;4.10;;
41233;SDS011;26968;42.686;23.352;2023-07-09T07:35:57;8.68;;;3.88;;
41233;SDS011;26968;42.686;23.352;2023-07-09T07:38:23;9.70;;;3.85;;
41233;SDS011;26968;42.686;23.352;2023-07-09T07:40:50;7.55;;;3.75;;
41233;SDS011;26968;42.686;23.352;2023-07-09T07:43:15;18.08;;;4.07;;
41233;SDS011;26968;42.686;23.352;2023-07-09T07:45:41;6.60;;;3.17;;
41233;SDS011;26968;42.686;23.352;2023-07-09T07:48:07;15.68;;;4.10;;
41233;SDS011;26968;42.686;23.352;2023-07-09T07:50:33;8.43;;;3.38;;
41233;SDS011;26968;42.686;23.352;2023-07-09T07:52:58;11.32;;;3.95;;
41233;SDS011;26968;42.686;23.352;2023-07-09T07:55:23;10.63;;;3.85;;
41233;SDS011;26968;42.686;23.352;2023-07-09T07:57:49;10.68;;;3.80;;
41233;SDS011;26968;42.686;23.352;2023-07-09T08:00:15;8.55;;;3.58;;
41233;SDS011;26968;42.686;23.352;2023-07-09T08:02:42;7.20;;;3.92;;
41233;SDS011;26968;42.686;23.352;2023-07-09T08:05:08;12.88;;;4.40;;
41233;SDS011;26968;42.686;23.352;2023-07-09T08:07:33;8.57;;;4.07;;
41233;SDS011;26968;42.686;23.352;2023-07-09T08:09:59;6.13;;;3.58;;
41233;SDS011;26968;42.686;23.352;2023-07-09T08:12:24;9.27;;;3.75;;
41233;SDS011;26968;42.686;23.352;2023-07-09T08:14:49;6.60;;;4.05;;
41233;SDS011;26968;42.686;23.352;2023-07-09T08:17:15;6.90;;;3.47;;
41233;SDS011;26968;42.686;23.352;2023-07-09T08:19:44;8.88;;;3.80;;
41233;SDS011;26968;42.686;23.352;2023-07-09T08:22:11;10.05;;;4.25;;
41233;SDS011;26968;42.686;23.352;2023-07-09T08:24:37;7.55;;;3.70;;
41233;SDS011;26968;42.686;23.352;2023-07-09T08:27:02;8.38;;;3.95;;
41233;SDS011;26968;42.686;23.352;2023-07-09T08:29:28;7.85;;;3.78;;
41233;SDS011;26968;42.686;23.352;2023-07-09T08:31:54;7.95;;;3.97;;
41233;SDS011;26968;42.686;23.352;2023-07-09T08:34:19;8.88;;;3.50;;
41233;SDS011;26968;42.686;23.352;2023-07-09T08:36:44;10.80;;;4.05;;
41233;SDS011;26968;42.686;23.352;2023-07-09T08:39:10;8.30;;;3.92;;
41233;SDS011;26968;42.686;23.352;2023-07-09T08:41:37;4.93;;;4.07;;
41233;SDS011;26968;42.686;23.352;2023-07-09T08:49:20;12.93;;;4.15;;
41233;SDS011;26968;42.686;23.352;2023-07-09T08:51:51;7.82;;;4.18;;
41233;SDS011;26968;42.686;23.352;2023-07-09T08:54:25;10.02;;;4.45;;
41233;SDS011;26968;42.686;23.352;2023-07-09T08:56:55;7.35;;;3.90;;
41233;SDS011;26968;42.686;23.352;2023-07-09T08:59:25;8.25;;;4.10;;
41233;SDS011;26968;42.686;23.352;2023-07-09T09:01:53;9.73;;;4.35;;
41233;SDS011;26968;42.686;23.352;2023-07-09T09:07:07;7.65;;;4.35;;
41233;SDS011;26968;42.686;23.352;2023-07-09T09:12:25;8.20;;;4.00;;
41233;SDS011;26968;42.686;23.352;2023-07-09T09:15:03;7.97;;;4.50;;
41233;SDS011;26968;42.686;23.352;2023-07-09T09:17:35;6.75;;;4.07;;
41233;SDS011;26968;42.686;23.352;2023-07-09T09:20:05;7.03;;;4.03;;
41233;SDS011;26968;42.686;23.352;2023-07-09T09:25:29;9.80;;;4.93;;
41233;SDS011;26968;42.686;23.352;2023-07-09T09:27:56;10.63;;;4.30;;
41233;SDS011;26968;42.686;23.352;2023-07-09T09:30:25;6.05;;;3.97;;
41233;SDS011;26968;42.686;23.352;2023-07-09T09:32:59;9.13;;;4.35;;
41233;SDS011;26968;42.686;23.352;2023-07-09T09:35:30;10.25;;;4.15;;
41233;SDS011;26968;42.686;23.352;2023-07-09T09:37:59;5.85;;;4.28;;
41233;SDS011;26968;42.686;23.352;2023-07-09T09:40:25;8.75;;;3.90;;
41233;SDS011;26968;42.686;23.352;2023-07-09T09:42:54;8.82;;;3.88;;
41233;SDS011;26968;42.686;23.352;2023-07-09T09:45:26;6.65;;;4.07;;
41233;SDS011;26968;42.686;23.352;2023-07-09T09:48:13;11.40;;;4.35;;
41233;SDS011;26968;42.686;23.352;2023-07-09T09:50:40;7.95;;;4.25;;
41233;SDS011;26968;42.686;23.352;2023-07-09T09:53:07;7.32;;;4.00;;
41233;SDS011;26968;42.686;23.352;2023-07-09T09:55:33;7.20;;;3.90;;
41233;SDS011;26968;42.686;23.352;2023-07-09T09:57:59;6.55;;;3.63;;
41233;SDS011;26968;42.686;23.352;2023-07-09T10:00:27;7.25;;;3.88;;
41233;SDS011;26968;42.686;23.352;2023-07-09T10:02:58;11.32;;;4.07;;
41233;SDS011;26968;42.686;23.352;2023-07-09T10:05:30;9.30;;;4.20;;
41233;SDS011;26968;42.686;23.352;2023-07-09T10:08:09;7.03;;;3.85;;
41233;SDS011;26968;42.686;23.352;2023-07-09T10:13:37;4.20;;;3.58;;
41233;SDS011;26968;42.686;23.352;2023-07-09T10:16:24;6.10;;;3.78;;
41233;SDS011;26968;42.686;23.352;2023-07-09T10:27:13;11.27;;;3.78;;
41233;SDS011;26968;42.686;23.352;2023-07-09T10:30:11;6.90;;;3.70;;
41233;SDS011;26968;42.686;23.352;2023-07-09T10:35:26;5.55;;;3.17;;
41233;SDS011;26968;42.686;23.352;2023-07-09T10:40:52;5.70;;;3.70;;
41233;SDS011;26968;42.686;23.352;2023-07-09T10:46:04;4.47;;;3.70;;
41233;SDS011;26968;42.686;23.352;2023-07-09T10:48:40;4.30;;;3.15;;
41233;SDS011;26968;42.686;23.352;2023-07-09T10:51:17;5.13;;;3.67;;
41233;SDS011;26968;42.686;23.352;2023-07-09T10:53:54;4.85;;;3.42;;
41233;SDS011;26968;42.686;23.352;2023-07-09T10:56:25;4.82;;;3.15;;
41233;SDS011;26968;42.686;23.352;2023-07-09T11:01:44;5.10;;;3.85;;
41233;SDS011;26968;42.686;23.352;2023-07-09T11:06:59;5.55;;;3.65;;
41233;SDS011;26968;42.686;23.352;2023-07-09T11:09:32;6.47;;;3.92;;
41233;SDS011;26968;42.686;23.352;2023-07-09T11:12:20;7.70;;;3.30;;
41233;SDS011;26968;42.686;23.352;2023-07-09T11:15:10;9.10;;;3.47;;
41233;SDS011;26968;42.686;23.352;2023-07-09T11:17:43;6.30;;;3.63;;
41233;SDS011;26968;42.686;23.352;2023-07-09T11:20:18;7.30;;;3.60;;
41233;SDS011;26968;42.686;23.352;2023-07-09T11:22:53;10.65;;;3.50;;
41233;SDS011;26968;42.686;23.352;2023-07-09T11:25:31;8.45;;;3.17;;
41233;SDS011;26968;42.686;23.352;2023-07-09T11:28:04;8.90;;;3.58;;
41233;SDS011;26968;42.686;23.352;2023-07-09T11:30:32;5.43;;;3.15;;
41233;SDS011;26968;42.686;23.352;2023-07-09T11:32:59;8.10;;;3.47;;
41233;SDS011;26968;42.686;23.352;2023-07-09T11:35:28;7.60;;;3.58;;
41233;SDS011;26968;42.686;23.352;2023-07-09T11:37:55;7.05;;;3.38;;
41233;SDS011;26968;42.686;23.352;2023-07-09T11:40:24;8.82;;;3.33;;
41233;SDS011;26968;42.686;23.352;2023-07-09T11:42:56;7.47;;;2.92;;
41233;SDS011;26968;42.686;23.352;2023-07-09T11:45:24;7.55;;;3.42;;
41233;SDS011;26968;42.686;23.352;2023-07-09T11:48:01;5.93;;;3.53;;
41233;SDS011;26968;42.686;23.352;2023-07-09T11:50:36;7.78;;;3.30;;
41233;SDS011;26968;42.686;23.352;2023-07-09T11:56:01;4.68;;;2.97;;
41233;SDS011;26968;42.686;23.352;2023-07-09T11:58:27;5.43;;;3.13;;
41233;SDS011;26968;42.686;23.352;2023-07-09T12:00:57;4.38;;;3.10;;
41233;SDS011;26968;42.686;23.352;2023-07-09T12:03:30;6.65;;;3.10;;
41233;SDS011;26968;42.686;23.352;2023-07-09T12:06:00;4.55;;;3.03;;
41233;SDS011;26968;42.686;23.352;2023-07-09T12:08:34;5.03;;;3.00;;
41233;SDS011;26968;42.686;23.352;2023-07-09T12:11:03;5.45;;;3.38;;
41233;SDS011;26968;42.686;23.352;2023-07-09T12:13:36;3.03;;;2.50;;
41233;SDS011;26968;42.686;23.352;2023-07-09T12:16:02;5.57;;;3.35;;
41233;SDS011;26968;42.686;23.352;2023-07-09T12:18:28;6.53;;;3.28;;
41233;SDS011;26968;42.686;23.352;2023-07-09T12:20:55;5.32;;;2.85;;
41233;SDS011;26968;42.686;23.352;2023-07-09T12:25:52;4.13;;;2.75;;
41233;SDS011;26968;42.686;23.352;2023-07-09T12:28:18;4.75;;;3.00;;
41233;SDS011;26968;42.686;23.352;2023-07-09T12:30:49;7.65;;;3.00;;
41233;SDS011;26968;42.686;23.352;2023-07-09T12:33:19;9.30;;;3.00;;
41233;SDS011;26968;42.686;23.352;2023-07-09T12:35:54;6.97;;;3.08;;
41233;SDS011;26968;42.686;23.352;2023-07-09T12:38:23;7.40;;;3.30;;
41233;SDS011;26968;42.686;23.352;2023-07-09T12:40:51;6.97;;;3.00;;
41233;SDS011;26968;42.686;23.352;2023-07-09T12:43:21;10.35;;;3.50;;
41233;SDS011;26968;42.686;23.352;2023-07-09T12:45:52;5.63;;;3.50;;
41233;SDS011;26968;42.686;23.352;2023-07-09T12:48:20;3.92;;;3.10;;
41233;SDS011;26968;42.686;23.352;2023-07-09T12:50:49;6.90;;;3.08;;
41233;SDS011;26968;42.686;23.352;2023-07-09T12:53:19;8.10;;;3.20;;
41233;SDS011;26968;42.686;23.352;2023-07-09T12:55:48;4.20;;;2.88;;
41233;SDS011;26968;42.686;23.352;2023-07-09T12:58:36;9.25;;;3.40;;
41233;SDS011;26968;42.686;23.352;2023-07-09T13:01:07;4.82;;;3.10;;
41233;SDS011;26968;42.686;23.352;2023-07-09T13:03:39;7.60;;;2.90;;
41233;SDS011;26968;42.686;23.352;2023-07-09T13:06:23;6.40;;;3.17;;
41233;SDS011;26968;42.686;23.352;2023-07-09T13:09:18;6.88;;;3.67;;
41233;SDS011;26968;42.686;23.352;2023-07-09T13:11:46;5.05;;;3.00;;
41233;SDS011;26968;42.686;23.352;2023-07-09T13:14:22;5.70;;;3.25;;
41233;SDS011;26968;42.686;23.352;2023-07-09T13:16:52;4.05;;;3.15;;
41233;SDS011;26968;42.686;23.352;2023-07-09T13:19:26;7.30;;;2.80;;
41233;SDS011;26968;42.686;23.352;2023-07-09T13:21:52;7.13;;;3.13;;
41233;SDS011;26968;42.686;23.352;2023-07-09T13:24:28;5.40;;;3.33;;
41233;SDS011;26968;42.686;23.352;2023-07-09T13:26:54;8.90;;;2.83;;
41233;SDS011;26968;42.686;23.352;2023-07-09T13:29:23;6.03;;;3.00;;
41233;SDS011;26968;42.686;23.352;2023-07-09T13:31:48;8.00;;;3.08;;
41233;SDS011;26968;42.686;23.352;2023-07-09T13:34:24;6.85;;;2.80;;
41233;SDS011;26968;42.686;23.352;2023-07-09T13:36:52;4.65;;;2.72;;
41233;SDS011;26968;42.686;23.352;2023-07-09T13:39:19;5.05;;;3.13;;
41233;SDS011;26968;42.686;23.352;2023-07-09T13:41:46;4.78;;;3.15;;
41233;SDS011;26968;42.686;23.352;2023-07-09T13:44:18;4.43;;;3.20;;
41233;SDS011;26968;42.686;23.352;2023-07-09T13:46:45;6.07;;;2.70;;
41233;SDS011;26968;42.686;23.352;2023-07-09T13:49:12;6.30;;;2.78;;
41233;SDS011;26968;42.686;23.352;2023-07-09T13:51:40;4.65;;;2.90;;
41233;SDS011;26968;42.686;23.352;2023-07-09T13:54:22;7.13;;;3.38;;
41233;SDS011;26968;42.686;23.352;2023-07-09T13:56:49;12.30;;;3.30;;
41233;SDS011;26968;42.686;23.352;2023-07-09T13:59:17;6.78;;;3.50;;
41233;SDS011;26968;42.686;23.352;2023-07-09T14:01:43;5.75;;;3.22;;
41233;SDS011;26968;42.686;23.352;2023-07-09T14:04:09;4.22;;;2.85;;
41233;SDS011;26968;42.686;23.352;2023-07-09T14:06:39;6.75;;;3.47;;
41233;SDS011;26968;42.686;23.352;2023-07-09T14:09:06;7.30;;;3.30;;
41233;SDS011;26968;42.686;23.352;2023-07-09T14:11:33;8.77;;;3.13;;
41233;SDS011;26968;42.686;23.352;2023-07-09T14:14:00;5.50;;;3.13;;
41233;SDS011;26968;42.686;23.352;2023-07-09T14:16:25;4.05;;;2.97;;
41233;SDS011;26968;42.686;23.352;2023-07-09T14:18:51;4.55;;;3.00;;
41233;SDS011;26968;42.686;23.352;2023-07-09T14:21:25;9.25;;;3.58;;
41233;SDS011;26968;42.686;23.352;2023-07-09T14:23:52;11.38;;;3.13;;
41233;SDS011;26968;42.686;23.352;2023-07-09T14:26:18;7.45;;;3.30;;
41233;SDS011;26968;42.686;23.352;2023-07-09T14:28:43;8.88;;;3.58;;
41233;SDS011;26968;42.686;23.352;2023-07-09T14:31:27;5.30;;;2.67;;
41233;SDS011;26968;42.686;23.352;2023-07-09T14:33:58;5.53;;;3.25;;
41233;SDS011;26968;42.686;23.352;2023-07-09T14:36:41;5.28;;;3.22;;
41233;SDS011;26968;42.686;23.352;2023-07-09T14:39:10;4.68;;;3.13;;
41233;SDS011;26968;42.686;23.352;2023-07-09T14:41:36;5.25;;;2.80;;
41233;SDS011;26968;42.686;23.352;2023-07-09T14:44:01;14.40;;;3.28;;
41233;SDS011;26968;42.686;23.352;2023-07-09T14:46:27;4.85;;;2.60;;
41233;SDS011;26968;42.686;23.352;2023-07-09T14:48:53;5.53;;;3.00;;
41233;SDS011;26968;42.686;23.352;2023-07-09T14:51:18;4.75;;;3.05;;
41233;SDS011;26968;42.686;23.352;2023-07-09T14:53:45;6.43;;;2.92;;
41233;SDS011;26968;42.686;23.352;2023-07-09T14:56:11;6.00;;;2.67;;
41233;SDS011;26968;42.686;23.352;2023-07-09T14:58:38;6.70;;;2.58;;
41233;SDS011;26968;42.686;23.352;2023-07-09T15:01:04;6.35;;;2.80;;
41233;SDS011;26968;42.686;23.352;2023-07-09T15:03:30;4.47;;;2.80;;
41233;SDS011;26968;42.686;23.352;2023-07-09T15:05:55;6.07;;;2.90;;
41233;SDS011;26968;42.686;23.352;2023-07-09T15:08:22;4.93;;;3.15;;
41233;SDS011;26968;42.686;23.352;2023-07-09T15:10:49;14.15;;;2.92;;
41233;SDS011;26968;42.686;23.352;2023-07-09T15:13:18;8.43;;;2.90;;
41233;SDS011;26968;42.686;23.352;2023-07-09T15:15:45;4.65;;;2.47;;
41233;SDS011;26968;42.686;23.352;2023-07-09T15:18:12;3.95;;;3.25;;
41233;SDS011;26968;42.686;23.352;2023-07-09T15:20:39;6.82;;;2.90;;
41233;SDS011;26968;42.686;23.352;2023-07-09T15:23:08;6.72;;;2.85;;
41233;SDS011;26968;42.686;23.352;2023-07-09T15:25:35;5.28;;;3.35;;